sensor_id;sensor_type;location;lat;lon;timestamp;P1;durP1;ratioP1;P2;durP2;ratioP2
3881;SDS011;1956;53.482;10.238;2023-09-12T00:00:16;11.57;;;8.67;;
3881;SDS011;1956;53.482;10.238;2023-09-12T00:05:17;15.27;;;7.80;;
3881;SDS011;1956;53.482;10.238;2023-09-12T00:10:17;11.57;;;8.70;;
3881;SDS011;1956;53.482;10.238;2023-09-12T00:15:17;15.95;;;12.60;;
3881;SDS011;1956;53.482;10.238;2023-09-12T00:20:19;30.00;;;12.17;;
3881;SDS011;1956;53.482;10.238;2023-09-12T00:25:20;29.50;;;13.83;;
3881;SDS011;1956;53.482;10.238;2023-09-12T00:30:20;25.77;;;14.47;;
3881;SDS011;1956;53.482;10.238;2023-09-12T00:35:20;36.03;;;17.20;;
3881;SDS011;1956;53.482;10.238;2023-09-12T00:40:21;33.83;;;18.57;;
3881;SDS011;1956;53.482;10.238;2023-09-12T00:45:21;39.10;;;23.30;;
3881;SDS011;1956;53.482;10.238;2023-09-12T00:50:21;42.50;;;26.83;;
3881;SDS011;1956;53.482;10.238;2023-09-12T00:55:22;51.93;;;27.53;;
3881;SDS011;1956;53.482;10.238;2023-09-12T01:00:23;45.23;;;26.97;;
3881;SDS011;1956;53.482;10.238;2023-09-12T01:05:23;51.23;;;28.40;;
3881;SDS011;1956;53.482;10.238;2023-09-12T01:10:23;52.57;;;30.20;;
3881;SDS011;1956;53.482;10.238;2023-09-12T01:15:24;53.60;;;30.02;;
3881;SDS011;1956;53.482;10.238;2023-09-12T01:20:25;52.13;;;27.87;;
3881;SDS011;1956;53.482;10.238;2023-09-12T01:25:55;53.90;;;29.10;;
3881;SDS011;1956;53.482;10.238;2023-09-12T01:30:58;52.80;;;27.67;;
3881;SDS011;1956;53.482;10.238;2023-09-12T01:36:00;48.57;;;27.60;;
3881;SDS011;1956;53.482;10.238;2023-09-12T01:41:01;47.60;;;27.03;;
3881;SDS011;1956;53.482;10.238;2023-09-12T01:46:01;51.10;;;27.23;;
3881;SDS011;1956;53.482;10.238;2023-09-12T01:51:01;48.20;;;25.27;;
3881;SDS011;1956;53.482;10.238;2023-09-12T01:56:02;52.33;;;27.43;;
3881;SDS011;1956;53.482;10.238;2023-09-12T02:01:02;59.07;;;29.63;;
3881;SDS011;1956;53.482;10.238;2023-09-12T02:06:03;54.87;;;28.00;;
3881;SDS011;1956;53.482;10.238;2023-09-12T02:11:03;49.33;;;25.60;;
3881;SDS011;1956;53.482;10.238;2023-09-12T02:16:03;55.60;;;29.50;;
3881;SDS011;1956;53.482;10.238;2023-09-12T02:21:04;60.57;;;31.77;;
3881;SDS011;1956;53.482;10.238;2023-09-12T02:26:04;53.43;;;27.60;;
3881;SDS011;1956;53.482;10.238;2023-09-12T02:31:09;53.93;;;28.93;;
3881;SDS011;1956;53.482;10.238;2023-09-12T02:36:09;59.63;;;30.80;;
3881;SDS011;1956;53.482;10.238;2023-09-12T02:41:09;57.63;;;31.60;;
3881;SDS011;1956;53.482;10.238;2023-09-12T02:46:10;53.93;;;31.83;;
3881;SDS011;1956;53.482;10.238;2023-09-12T02:51:11;54.77;;;29.07;;
3881;SDS011;1956;53.482;10.238;2023-09-12T02:56:11;59.87;;;29.37;;
3881;SDS011;1956;53.482;10.238;2023-09-12T03:01:15;51.93;;;27.27;;
3881;SDS011;1956;53.482;10.238;2023-09-12T03:06:16;49.47;;;28.90;;
3881;SDS011;1956;53.482;10.238;2023-09-12T03:11:18;55.60;;;28.87;;
3881;SDS011;1956;53.482;10.238;2023-09-12T03:16:18;55.13;;;30.70;;
3881;SDS011;1956;53.482;10.238;2023-09-12T03:21:19;54.70;;;30.77;;
3881;SDS011;1956;53.482;10.238;2023-09-12T03:26:19;62.07;;;30.07;;
3881;SDS011;1956;53.482;10.238;2023-09-12T03:31:19;78.27;;;34.57;;
3881;SDS011;1956;53.482;10.238;2023-09-12T03:36:20;59.43;;;34.27;;
3881;SDS011;1956;53.482;10.238;2023-09-12T03:41:20;57.17;;;32.10;;
3881;SDS011;1956;53.482;10.238;2023-09-12T03:46:25;60.30;;;33.37;;
3881;SDS011;1956;53.482;10.238;2023-09-12T03:51:25;68.20;;;35.17;;
3881;SDS011;1956;53.482;10.238;2023-09-12T03:56:25;64.77;;;36.37;;
3881;SDS011;1956;53.482;10.238;2023-09-12T04:01:26;64.03;;;33.57;;
3881;SDS011;1956;53.482;10.238;2023-09-12T04:06:27;54.80;;;30.77;;
3881;SDS011;1956;53.482;10.238;2023-09-12T04:11:27;67.43;;;33.72;;
3881;SDS011;1956;53.482;10.238;2023-09-12T04:16:27;55.83;;;32.77;;
3881;SDS011;1956;53.482;10.238;2023-09-12T04:21:28;59.53;;;31.33;;
3881;SDS011;1956;53.482;10.238;2023-09-12T04:26:28;55.90;;;29.40;;
3881;SDS011;1956;53.482;10.238;2023-09-12T04:31:28;54.67;;;30.70;;
3881;SDS011;1956;53.482;10.238;2023-09-12T04:36:28;58.03;;;29.97;;
3881;SDS011;1956;53.482;10.238;2023-09-12T04:41:29;59.80;;;29.03;;
3881;SDS011;1956;53.482;10.238;2023-09-12T04:46:29;66.10;;;32.57;;
3881;SDS011;1956;53.482;10.238;2023-09-12T04:51:29;51.20;;;30.23;;
3881;SDS011;1956;53.482;10.238;2023-09-12T04:56:29;55.93;;;30.10;;
3881;SDS011;1956;53.482;10.238;2023-09-12T05:01:30;59.47;;;31.43;;
3881;SDS011;1956;53.482;10.238;2023-09-12T05:06:30;66.00;;;31.47;;
3881;SDS011;1956;53.482;10.238;2023-09-12T05:11:30;60.17;;;33.10;;
3881;SDS011;1956;53.482;10.238;2023-09-12T05:16:30;75.10;;;33.00;;
3881;SDS011;1956;53.482;10.238;2023-09-12T05:21:31;67.90;;;34.33;;
3881;SDS011;1956;53.482;10.238;2023-09-12T05:26:31;70.33;;;33.57;;
3881;SDS011;1956;53.482;10.238;2023-09-12T05:31:31;64.57;;;34.00;;
3881;SDS011;1956;53.482;10.238;2023-09-12T05:36:32;62.97;;;32.47;;
3881;SDS011;1956;53.482;10.238;2023-09-12T05:41:33;65.23;;;33.43;;
3881;SDS011;1956;53.482;10.238;2023-09-12T05:46:33;69.97;;;30.53;;
3881;SDS011;1956;53.482;10.238;2023-09-12T05:51:33;63.00;;;33.10;;
3881;SDS011;1956;53.482;10.238;2023-09-12T05:56:34;60.27;;;31.63;;
3881;SDS011;1956;53.482;10.238;2023-09-12T06:01:34;57.53;;;31.40;;
3881;SDS011;1956;53.482;10.238;2023-09-12T06:06:34;48.63;;;29.50;;
3881;SDS011;1956;53.482;10.238;2023-09-12T06:11:35;57.43;;;29.23;;
3881;SDS011;1956;53.482;10.238;2023-09-12T06:16:35;52.20;;;29.53;;
3881;SDS011;1956;53.482;10.238;2023-09-12T06:21:35;67.67;;;33.20;;
3881;SDS011;1956;53.482;10.238;2023-09-12T06:26:35;48.40;;;28.10;;
3881;SDS011;1956;53.482;10.238;2023-09-12T06:31:36;59.45;;;29.52;;
3881;SDS011;1956;53.482;10.238;2023-09-12T06:36:36;52.90;;;28.97;;
3881;SDS011;1956;53.482;10.238;2023-09-12T06:41:37;62.47;;;30.37;;
3881;SDS011;1956;53.482;10.238;2023-09-12T06:46:37;59.05;;;32.17;;
3881;SDS011;1956;53.482;10.238;2023-09-12T06:51:37;60.27;;;33.47;;
3881;SDS011;1956;53.482;10.238;2023-09-12T06:56:38;68.35;;;36.28;;
3881;SDS011;1956;53.482;10.238;2023-09-12T07:01:38;61.67;;;30.47;;
3881;SDS011;1956;53.482;10.238;2023-09-12T07:06:38;66.23;;;31.80;;
3881;SDS011;1956;53.482;10.238;2023-09-12T07:11:39;67.13;;;34.20;;
3881;SDS011;1956;53.482;10.238;2023-09-12T07:16:39;64.87;;;33.50;;
3881;SDS011;1956;53.482;10.238;2023-09-12T07:21:39;56.37;;;31.90;;
3881;SDS011;1956;53.482;10.238;2023-09-12T07:26:39;64.47;;;34.20;;
3881;SDS011;1956;53.482;10.238;2023-09-12T07:31:40;70.97;;;33.53;;
3881;SDS011;1956;53.482;10.238;2023-09-12T07:36:40;71.77;;;34.80;;
3881;SDS011;1956;53.482;10.238;2023-09-12T07:41:40;66.07;;;33.10;;
3881;SDS011;1956;53.482;10.238;2023-09-12T07:46:40;68.03;;;33.53;;
3881;SDS011;1956;53.482;10.238;2023-09-12T07:51:41;61.57;;;32.97;;
3881;SDS011;1956;53.482;10.238;2023-09-12T07:56:41;60.80;;;31.35;;
3881;SDS011;1956;53.482;10.238;2023-09-12T08:01:41;62.78;;;31.83;;
3881;SDS011;1956;53.482;10.238;2023-09-12T08:06:42;66.47;;;32.97;;
3881;SDS011;1956;53.482;10.238;2023-09-12T08:11:42;65.20;;;33.80;;
3881;SDS011;1956;53.482;10.238;2023-09-12T08:16:42;65.40;;;32.50;;
3881;SDS011;1956;53.482;10.238;2023-09-12T08:21:42;70.77;;;33.63;;
3881;SDS011;1956;53.482;10.238;2023-09-12T08:26:43;61.53;;;30.57;;
3881;SDS011;1956;53.482;10.238;2023-09-12T08:31:43;59.37;;;30.03;;
3881;SDS011;1956;53.482;10.238;2023-09-12T08:36:44;66.60;;;31.70;;
3881;SDS011;1956;53.482;10.238;2023-09-12T08:41:45;64.43;;;30.53;;
3881;SDS011;1956;53.482;10.238;2023-09-12T08:46:46;52.27;;;28.13;;
3881;SDS011;1956;53.482;10.238;2023-09-12T08:51:47;54.27;;;27.33;;
3881;SDS011;1956;53.482;10.238;2023-09-12T08:56:47;56.67;;;28.77;;
3881;SDS011;1956;53.482;10.238;2023-09-12T09:01:47;61.47;;;27.58;;
3881;SDS011;1956;53.482;10.238;2023-09-12T09:06:51;54.33;;;28.60;;
3881;SDS011;1956;53.482;10.238;2023-09-12T09:11:51;59.40;;;32.00;;
3881;SDS011;1956;53.482;10.238;2023-09-12T09:16:51;57.93;;;29.30;;
3881;SDS011;1956;53.482;10.238;2023-09-12T09:21:51;60.13;;;30.30;;
3881;SDS011;1956;53.482;10.238;2023-09-12T09:27:04;48.40;;;28.07;;
3881;SDS011;1956;53.482;10.238;2023-09-12T09:32:04;45.27;;;26.57;;
3881;SDS011;1956;53.482;10.238;2023-09-12T09:37:16;50.27;;;25.80;;
3881;SDS011;1956;53.482;10.238;2023-09-12T09:42:19;39.03;;;23.53;;
3881;SDS011;1956;53.482;10.238;2023-09-12T09:47:19;38.70;;;22.00;;
3881;SDS011;1956;53.482;10.238;2023-09-12T09:52:29;41.67;;;24.40;;
3881;SDS011;1956;53.482;10.238;2023-09-12T09:57:29;45.23;;;24.83;;
3881;SDS011;1956;53.482;10.238;2023-09-12T10:02:30;39.83;;;23.10;;
3881;SDS011;1956;53.482;10.238;2023-09-12T10:07:33;40.90;;;23.40;;
3881;SDS011;1956;53.482;10.238;2023-09-12T10:12:39;49.67;;;25.70;;
3881;SDS011;1956;53.482;10.238;2023-09-12T10:17:42;41.40;;;23.93;;
3881;SDS011;1956;53.482;10.238;2023-09-12T10:22:43;41.57;;;23.40;;
3881;SDS011;1956;53.482;10.238;2023-09-12T10:27:49;41.77;;;23.80;;
3881;SDS011;1956;53.482;10.238;2023-09-12T10:32:49;43.10;;;23.73;;
3881;SDS011;1956;53.482;10.238;2023-09-12T10:37:50;44.63;;;25.80;;
3881;SDS011;1956;53.482;10.238;2023-09-12T10:42:51;38.17;;;22.47;;
3881;SDS011;1956;53.482;10.238;2023-09-12T10:47:51;39.10;;;23.07;;
3881;SDS011;1956;53.482;10.238;2023-09-12T10:52:51;38.67;;;22.47;;
3881;SDS011;1956;53.482;10.238;2023-09-12T10:58:01;38.10;;;22.63;;
3881;SDS011;1956;53.482;10.238;2023-09-12T11:08:21;33.77;;;21.30;;
3881;SDS011;1956;53.482;10.238;2023-09-12T11:13:22;34.90;;;21.90;;
3881;SDS011;1956;53.482;10.238;2023-09-12T11:19:11;31.67;;;20.90;;
3881;SDS011;1956;53.482;10.238;2023-09-12T11:24:01;42.93;;;21.97;;
3881;SDS011;1956;53.482;10.238;2023-09-12T11:29:10;24.40;;;17.47;;
3881;SDS011;1956;53.482;10.238;2023-09-12T11:34:10;22.43;;;13.87;;
3881;SDS011;1956;53.482;10.238;2023-09-12T11:44:44;21.20;;;14.20;;
3881;SDS011;1956;53.482;10.238;2023-09-12T11:49:48;18.80;;;13.67;;
3881;SDS011;1956;53.482;10.238;2023-09-12T11:54:48;21.00;;;13.80;;
3881;SDS011;1956;53.482;10.238;2023-09-12T11:59:48;21.17;;;13.40;;
3881;SDS011;1956;53.482;10.238;2023-09-12T12:04:49;20.43;;;13.20;;
3881;SDS011;1956;53.482;10.238;2023-09-12T12:09:50;22.50;;;12.90;;
3881;SDS011;1956;53.482;10.238;2023-09-12T12:14:50;20.40;;;13.07;;
3881;SDS011;1956;53.482;10.238;2023-09-12T12:19:51;15.00;;;11.37;;
3881;SDS011;1956;53.482;10.238;2023-09-12T12:24:51;15.97;;;12.40;;
3881;SDS011;1956;53.482;10.238;2023-09-12T12:29:51;16.83;;;10.80;;
3881;SDS011;1956;53.482;10.238;2023-09-12T12:34:51;16.50;;;11.47;;
3881;SDS011;1956;53.482;10.238;2023-09-12T12:39:52;17.13;;;11.33;;
3881;SDS011;1956;53.482;10.238;2023-09-12T12:44:53;14.30;;;10.90;;
3881;SDS011;1956;53.482;10.238;2023-09-12T12:49:53;15.53;;;10.37;;
3881;SDS011;1956;53.482;10.238;2023-09-12T12:54:54;17.37;;;11.13;;
3881;SDS011;1956;53.482;10.238;2023-09-12T13:00:04;14.43;;;11.23;;
3881;SDS011;1956;53.482;10.238;2023-09-12T13:05:06;15.93;;;12.50;;
3881;SDS011;1956;53.482;10.238;2023-09-12T13:10:08;18.90;;;11.77;;
3881;SDS011;1956;53.482;10.238;2023-09-12T13:15:08;17.50;;;11.40;;
3881;SDS011;1956;53.482;10.238;2023-09-12T13:20:09;17.70;;;11.17;;
3881;SDS011;1956;53.482;10.238;2023-09-12T13:25:09;16.83;;;10.97;;
3881;SDS011;1956;53.482;10.238;2023-09-12T13:30:10;15.27;;;10.93;;
3881;SDS011;1956;53.482;10.238;2023-09-12T13:35:11;12.93;;;10.47;;
3881;SDS011;1956;53.482;10.238;2023-09-12T13:40:11;15.10;;;10.90;;
3881;SDS011;1956;53.482;10.238;2023-09-12T13:45:11;19.20;;;12.40;;
3881;SDS011;1956;53.482;10.238;2023-09-12T13:50:11;12.93;;;10.90;;
3881;SDS011;1956;53.482;10.238;2023-09-12T13:55:12;12.67;;;10.40;;
3881;SDS011;1956;53.482;10.238;2023-09-12T14:00:15;12.10;;;9.63;;
3881;SDS011;1956;53.482;10.238;2023-09-12T14:05:16;17.70;;;10.50;;
3881;SDS011;1956;53.482;10.238;2023-09-12T14:10:16;13.93;;;10.20;;
3881;SDS011;1956;53.482;10.238;2023-09-12T14:15:17;14.37;;;10.40;;
3881;SDS011;1956;53.482;10.238;2023-09-12T14:20:17;14.18;;;9.98;;
3881;SDS011;1956;53.482;10.238;2023-09-12T14:25:17;14.70;;;11.10;;
3881;SDS011;1956;53.482;10.238;2023-09-12T14:30:17;14.33;;;11.00;;
3881;SDS011;1956;53.482;10.238;2023-09-12T14:35:20;14.53;;;11.20;;
3881;SDS011;1956;53.482;10.238;2023-09-12T14:40:20;15.47;;;10.90;;
3881;SDS011;1956;53.482;10.238;2023-09-12T14:45:21;13.80;;;10.37;;
3881;SDS011;1956;53.482;10.238;2023-09-12T14:50:21;11.90;;;9.27;;
3881;SDS011;1956;53.482;10.238;2023-09-12T14:55:24;7.83;;;6.60;;
3881;SDS011;1956;53.482;10.238;2023-09-12T15:00:24;7.13;;;6.43;;
3881;SDS011;1956;53.482;10.238;2023-09-12T15:05:24;6.60;;;5.57;;
3881;SDS011;1956;53.482;10.238;2023-09-12T15:10:24;9.80;;;7.30;;
3881;SDS011;1956;53.482;10.238;2023-09-12T15:15:25;8.50;;;6.00;;
3881;SDS011;1956;53.482;10.238;2023-09-12T15:20:25;8.90;;;6.30;;
3881;SDS011;1956;53.482;10.238;2023-09-12T15:25:25;10.03;;;6.37;;
3881;SDS011;1956;53.482;10.238;2023-09-12T15:30:25;9.03;;;6.10;;
3881;SDS011;1956;53.482;10.238;2023-09-12T15:35:26;8.87;;;6.03;;
3881;SDS011;1956;53.482;10.238;2023-09-12T15:40:26;7.60;;;6.57;;
3881;SDS011;1956;53.482;10.238;2023-09-12T15:45:27;7.73;;;6.80;;
3881;SDS011;1956;53.482;10.238;2023-09-12T15:50:27;10.93;;;7.07;;
3881;SDS011;1956;53.482;10.238;2023-09-12T15:55:27;7.43;;;6.37;;
3881;SDS011;1956;53.482;10.238;2023-09-12T16:00:27;7.00;;;6.30;;
3881;SDS011;1956;53.482;10.238;2023-09-12T16:05:28;16.50;;;9.03;;
3881;SDS011;1956;53.482;10.238;2023-09-12T16:10:28;9.83;;;7.40;;
3881;SDS011;1956;53.482;10.238;2023-09-12T16:15:28;10.30;;;7.93;;
3881;SDS011;1956;53.482;10.238;2023-09-12T16:20:28;12.90;;;8.07;;
3881;SDS011;1956;53.482;10.238;2023-09-12T16:25:29;8.60;;;7.27;;
3881;SDS011;1956;53.482;10.238;2023-09-12T16:30:29;11.57;;;9.20;;
3881;SDS011;1956;53.482;10.238;2023-09-12T16:35:29;10.10;;;7.53;;
3881;SDS011;1956;53.482;10.238;2023-09-12T16:40:29;11.50;;;8.10;;
3881;SDS011;1956;53.482;10.238;2023-09-12T16:45:32;9.13;;;7.63;;
3881;SDS011;1956;53.482;10.238;2023-09-12T16:50:32;11.40;;;8.80;;
3881;SDS011;1956;53.482;10.238;2023-09-12T16:55:32;13.20;;;8.20;;
3881;SDS011;1956;53.482;10.238;2023-09-12T17:00:33;8.20;;;7.37;;
3881;SDS011;1956;53.482;10.238;2023-09-12T17:05:33;9.60;;;7.47;;
3881;SDS011;1956;53.482;10.238;2023-09-12T17:10:33;8.53;;;7.43;;
3881;SDS011;1956;53.482;10.238;2023-09-12T17:15:33;8.50;;;7.70;;
3881;SDS011;1956;53.482;10.238;2023-09-12T17:20:37;13.23;;;8.47;;
3881;SDS011;1956;53.482;10.238;2023-09-12T17:25:37;9.70;;;7.87;;
3881;SDS011;1956;53.482;10.238;2023-09-12T17:30:37;11.17;;;9.40;;
3881;SDS011;1956;53.482;10.238;2023-09-12T17:35:38;7.47;;;6.77;;
3881;SDS011;1956;53.482;10.238;2023-09-12T17:40:38;12.23;;;8.40;;
3881;SDS011;1956;53.482;10.238;2023-09-12T17:45:38;11.90;;;8.13;;
3881;SDS011;1956;53.482;10.238;2023-09-12T17:50:39;10.60;;;8.03;;
3881;SDS011;1956;53.482;10.238;2023-09-12T17:55:39;8.27;;;7.47;;
3881;SDS011;1956;53.482;10.238;2023-09-12T18:00:39;9.43;;;8.47;;
3881;SDS011;1956;53.482;10.238;2023-09-12T18:05:40;9.50;;;7.93;;
3881;SDS011;1956;53.482;10.238;2023-09-12T18:10:40;11.67;;;8.67;;
3881;SDS011;1956;53.482;10.238;2023-09-12T18:15:40;12.40;;;9.00;;
3881;SDS011;1956;53.482;10.238;2023-09-12T18:20:40;11.60;;;9.40;;
3881;SDS011;1956;53.482;10.238;2023-09-12T18:25:41;10.33;;;8.50;;
3881;SDS011;1956;53.482;10.238;2023-09-12T18:30:41;12.93;;;10.03;;
3881;SDS011;1956;53.482;10.238;2023-09-12T18:35:41;19.63;;;9.83;;
3881;SDS011;1956;53.482;10.238;2023-09-12T18:40:41;11.20;;;9.57;;
3881;SDS011;1956;53.482;10.238;2023-09-12T18:45:42;16.33;;;8.83;;
3881;SDS011;1956;53.482;10.238;2023-09-12T18:50:44;11.70;;;8.37;;
3881;SDS011;1956;53.482;10.238;2023-09-12T18:55:46;11.63;;;9.20;;
3881;SDS011;1956;53.482;10.238;2023-09-12T19:00:47;11.83;;;9.37;;
3881;SDS011;1956;53.482;10.238;2023-09-12T19:05:48;16.37;;;11.10;;
3881;SDS011;1956;53.482;10.238;2023-09-12T19:10:48;10.90;;;8.20;;
3881;SDS011;1956;53.482;10.238;2023-09-12T19:15:48;11.13;;;8.73;;
3881;SDS011;1956;53.482;10.238;2023-09-12T19:20:49;14.43;;;9.43;;
3881;SDS011;1956;53.482;10.238;2023-09-12T19:25:49;12.37;;;9.53;;
3881;SDS011;1956;53.482;10.238;2023-09-12T19:30:49;11.17;;;10.00;;
3881;SDS011;1956;53.482;10.238;2023-09-12T19:35:50;12.77;;;10.33;;
3881;SDS011;1956;53.482;10.238;2023-09-12T19:40:56;10.10;;;7.97;;
3881;SDS011;1956;53.482;10.238;2023-09-12T19:46:01;9.97;;;8.63;;
3881;SDS011;1956;53.482;10.238;2023-09-12T19:51:02;18.50;;;8.57;;
3881;SDS011;1956;53.482;10.238;2023-09-12T19:56:02;8.17;;;7.17;;
3881;SDS011;1956;53.482;10.238;2023-09-12T20:01:03;11.50;;;8.50;;
3881;SDS011;1956;53.482;10.238;2023-09-12T20:06:06;13.03;;;9.37;;
3881;SDS011;1956;53.482;10.238;2023-09-12T20:11:06;11.67;;;9.00;;
3881;SDS011;1956;53.482;10.238;2023-09-12T20:16:14;10.90;;;8.70;;
3881;SDS011;1956;53.482;10.238;2023-09-12T20:21:15;12.17;;;10.20;;
3881;SDS011;1956;53.482;10.238;2023-09-12T20:26:15;13.53;;;10.10;;
3881;SDS011;1956;53.482;10.238;2023-09-12T20:31:16;11.07;;;9.60;;
3881;SDS011;1956;53.482;10.238;2023-09-12T20:36:17;12.63;;;8.27;;
3881;SDS011;1956;53.482;10.238;2023-09-12T20:41:17;13.00;;;9.90;;
3881;SDS011;1956;53.482;10.238;2023-09-12T20:46:18;10.47;;;9.17;;
3881;SDS011;1956;53.482;10.238;2023-09-12T20:51:18;13.37;;;9.67;;
3881;SDS011;1956;53.482;10.238;2023-09-12T20:56:18;11.17;;;9.30;;
3881;SDS011;1956;53.482;10.238;2023-09-12T21:01:19;12.97;;;9.07;;
3881;SDS011;1956;53.482;10.238;2023-09-12T21:06:19;19.20;;;12.00;;
3881;SDS011;1956;53.482;10.238;2023-09-12T21:11:19;11.82;;;9.73;;
3881;SDS011;1956;53.482;10.238;2023-09-12T21:16:21;10.73;;;8.40;;
3881;SDS011;1956;53.482;10.238;2023-09-12T21:21:21;12.90;;;10.33;;
3881;SDS011;1956;53.482;10.238;2023-09-12T21:26:21;11.60;;;9.60;;
3881;SDS011;1956;53.482;10.238;2023-09-12T21:31:22;13.50;;;9.17;;
3881;SDS011;1956;53.482;10.238;2023-09-12T21:36:23;13.13;;;8.33;;
3881;SDS011;1956;53.482;10.238;2023-09-12T21:41:23;12.63;;;8.87;;
3881;SDS011;1956;53.482;10.238;2023-09-12T21:46:23;10.77;;;8.30;;
3881;SDS011;1956;53.482;10.238;2023-09-12T21:51:24;16.87;;;9.70;;
3881;SDS011;1956;53.482;10.238;2023-09-12T21:56:25;10.80;;;8.27;;
3881;SDS011;1956;53.482;10.238;2023-09-12T22:01:25;13.00;;;8.57;;
3881;SDS011;1956;53.482;10.238;2023-09-12T22:06:26;9.67;;;8.20;;
3881;SDS011;1956;53.482;10.238;2023-09-12T22:11:26;9.57;;;8.57;;
3881;SDS011;1956;53.482;10.238;2023-09-12T22:16:26;16.00;;;9.70;;
3881;SDS011;1956;53.482;10.238;2023-09-12T22:21:27;15.73;;;9.30;;
3881;SDS011;1956;53.482;10.238;2023-09-12T22:26:27;14.88;;;9.90;;
3881;SDS011;1956;53.482;10.238;2023-09-12T22:31:27;15.90;;;10.20;;
3881;SDS011;1956;53.482;10.238;2023-09-12T22:36:27;14.55;;;9.75;;
3881;SDS011;1956;53.482;10.238;2023-09-12T22:41:28;12.70;;;9.70;;
3881;SDS011;1956;53.482;10.238;2023-09-12T22:46:29;14.00;;;10.73;;
3881;SDS011;1956;53.482;10.238;2023-09-12T22:51:29;12.90;;;9.50;;
3881;SDS011;1956;53.482;10.238;2023-09-12T22:56:29;18.83;;;9.83;;
3881;SDS011;1956;53.482;10.238;2023-09-12T23:01:30;22.20;;;10.47;;
3881;SDS011;1956;53.482;10.238;2023-09-12T23:06:31;13.40;;;9.53;;
3881;SDS011;1956;53.482;10.238;2023-09-12T23:11:32;18.90;;;10.20;;
3881;SDS011;1956;53.482;10.238;2023-09-12T23:16:32;11.83;;;9.00;;
3881;SDS011;1956;53.482;10.238;2023-09-12T23:21:34;12.07;;;9.60;;
3881;SDS011;1956;53.482;10.238;2023-09-12T23:26:35;17.20;;;9.27;;
3881;SDS011;1956;53.482;10.238;2023-09-12T23:31:35;14.70;;;10.38;;
3881;SDS011;1956;53.482;10.238;2023-09-12T23:36:35;13.00;;;10.03;;
3881;SDS011;1956;53.482;10.238;2023-09-12T23:41:35;17.23;;;11.15;;
3881;SDS011;1956;53.482;10.238;2023-09-12T23:46:36;13.43;;;9.77;;
3881;SDS011;1956;53.482;10.238;2023-09-12T23:51:37;11.50;;;10.03;;
3881;SDS011;1956;53.482;10.238;2023-09-12T23:56:37;15.23;;;9.13;;
